createdAt,value
2022-11-13T12:21:38.558Z,22.67
2022-11-13T12:24:25.374Z,18.90
2022-11-13T12:26:58.169Z,21.90
2022-11-13T12:29:24.773Z,22.20
2022-11-13T12:32:00.146Z,20.55
2022-11-13T12:34:38.242Z,18.30
2022-11-13T12:37:13.166Z,16.70
2022-11-13T12:39:52.451Z,13.00
2022-11-13T12:42:34.298Z,13.43
2022-11-13T12:45:16.660Z,15.82
2022-11-13T12:47:43.511Z,12.80
2022-11-13T12:50:32.518Z,12.48
2022-11-13T12:53:05.737Z,12.98
2022-11-13T12:55:38.840Z,14.05
2022-11-13T12:58:20.793Z,13.30
2022-11-13T13:00:56.790Z,12.85
2022-11-13T13:04:18.098Z,13.07
2022-11-13T13:07:05.593Z,15.20
2022-11-13T13:09:41.274Z,13.00
2022-11-13T13:12:44.911Z,12.27
2022-11-13T13:15:28.573Z,13.73
2022-11-13T13:18:24.559Z,13.55
2022-11-13T13:20:57.335Z,13.77
2022-11-13T13:23:44.526Z,14.82
2022-11-13T13:26:15.949Z,16.60
2022-11-13T13:28:49.419Z,15.65
2022-11-13T13:31:41.668Z,14.50
2022-11-13T13:34:19.422Z,13.95
2022-11-13T13:36:49.040Z,16.05
2022-11-13T13:39:38.808Z,15.00
2022-11-13T13:42:24.086Z,14.10
2022-11-13T13:45:03.039Z,17.10
2022-11-13T13:47:41.153Z,16.65
2022-11-13T13:50:14.474Z,17.92
2022-11-13T13:52:43.821Z,16.25
2022-11-13T13:55:22.816Z,16.80
2022-11-13T13:57:49.587Z,20.42
2022-11-13T14:00:19.107Z,21.75
2022-11-13T14:05:30.835Z,20.98
2022-11-13T14:07:58.023Z,22.38
2022-11-13T14:10:28.248Z,23.38
2022-11-13T14:12:56.168Z,23.98
2022-11-13T14:15:29.158Z,23.23
2022-11-13T14:18:07.750Z,21.95
2022-11-13T14:21:00.882Z,23.10
2022-11-13T14:23:29.915Z,25.00
2022-11-13T14:25:57.473Z,25.20
2022-11-13T14:28:33.719Z,26.00
2022-11-13T14:31:07.113Z,28.83
2022-11-13T14:33:46.739Z,30.50
2022-11-13T14:36:16.473Z,28.98
2022-11-13T14:38:52.248Z,28.65
2022-11-13T14:41:24.637Z,28.83
2022-11-13T14:43:52.731Z,26.63
2022-11-13T14:46:39.196Z,30.33
2022-11-13T14:49:14.712Z,29.75
2022-11-13T14:51:41.510Z,28.98
2022-11-13T14:54:33.751Z,30.33
2022-11-13T14:57:11.184Z,29.38
2022-11-13T15:02:05.732Z,27.73
2022-11-13T15:04:36.472Z,29.10
2022-11-13T15:07:29.802Z,36.10
2022-11-13T15:09:57.401Z,26.50
2022-11-13T15:12:24.262Z,26.92
2022-11-13T15:14:51.516Z,28.73
2022-11-13T15:17:21.218Z,29.00
2022-11-13T15:19:51.539Z,28.75
2022-11-13T15:22:27.256Z,29.85
2022-11-13T15:24:54.853Z,31.67
2022-11-13T15:27:21.733Z,33.28
2022-11-13T15:29:48.429Z,37.30
2022-11-13T15:32:16.231Z,37.80
2022-11-13T15:34:43.317Z,38.05
2022-11-13T15:37:15.728Z,43.05
2022-11-13T15:39:42.496Z,36.33
2022-11-13T15:42:14.383Z,36.47
2022-11-13T15:44:41.007Z,44.05
2022-11-13T15:47:30.346Z,44.65
2022-11-13T15:50:12.919Z,50.53
2022-11-13T15:52:43.006Z,40.72
2022-11-13T15:55:24.741Z,46.13
2022-11-13T15:57:51.707Z,43.20
2022-11-13T16:00:21.698Z,52.03
2022-11-13T16:02:50.791Z,42.10
2022-11-13T16:05:18.223Z,39.13
2022-11-13T16:07:44.951Z,39.25
2022-11-13T16:10:11.745Z,31.00
2022-11-13T16:12:38.369Z,49.40
2022-11-13T16:15:05.707Z,36.50
2022-11-13T16:17:39.459Z,30.98
2022-11-13T16:20:07.918Z,30.50
2022-11-13T16:22:34.553Z,38.88
2022-11-13T16:25:01.231Z,49.83
2022-11-13T16:27:34.073Z,42.47
2022-11-13T16:30:05.536Z,44.03
2022-11-13T16:32:33.678Z,46.33
2022-11-13T16:35:00.285Z,64.13
2022-11-13T16:37:26.881Z,46.88
2022-11-13T16:39:53.564Z,45.15
2022-11-13T16:42:20.152Z,34.00
2022-11-13T16:44:46.835Z,34.65
2022-11-13T16:47:32.783Z,56.08
2022-11-13T16:50:00.886Z,36.78
2022-11-13T16:52:28.000Z,46.45
2022-11-13T16:54:54.616Z,51.33
2022-11-13T16:57:21.197Z,54.70
2022-11-13T16:59:47.866Z,47.78
2022-11-13T17:02:17.005Z,46.10
2022-11-13T17:04:44.573Z,48.65
2022-11-13T17:07:13.646Z,46.70
2022-11-13T17:09:45.288Z,62.70
2022-11-13T17:12:12.025Z,65.50
2022-11-13T17:14:39.376Z,56.50
2022-11-13T17:17:11.746Z,48.35
2022-11-13T17:19:43.904Z,56.72
2022-11-13T17:22:11.688Z,48.10
2022-11-13T17:24:39.382Z,54.97
2022-11-13T17:27:06.651Z,50.78
2022-11-13T17:29:33.837Z,63.55
2022-11-13T17:32:00.627Z,61.65
2022-11-13T17:34:27.219Z,64.82
2022-11-13T17:36:56.679Z,62.08
2022-11-13T17:41:50.670Z,71.03
2022-11-13T17:44:17.749Z,55.50
2022-11-13T17:46:44.811Z,54.67
2022-11-13T17:49:11.407Z,54.70
2022-11-13T17:51:38.290Z,62.78
2022-11-13T17:54:04.925Z,76.00
2022-11-13T17:56:31.568Z,70.20
2022-11-13T17:58:58.202Z,77.43
2022-11-13T18:01:25.066Z,74.38
2022-11-13T18:03:58.693Z,75.93
2022-11-13T18:06:25.538Z,71.22
2022-11-13T18:08:52.171Z,65.35
2022-11-13T18:11:24.396Z,74.40
2022-11-13T18:13:52.002Z,82.55
2022-11-13T18:16:29.580Z,83.13
2022-11-13T18:18:58.031Z,72.47
2022-11-13T18:21:28.252Z,68.32
2022-11-13T18:23:57.993Z,64.35
2022-11-13T18:26:25.569Z,80.78
2022-11-13T18:28:52.211Z,74.25
2022-11-13T18:31:20.222Z,72.57
2022-11-13T18:33:47.950Z,81.45
2022-11-13T18:36:15.062Z,75.55
2022-11-13T18:38:43.548Z,81.15
2022-11-13T18:41:13.015Z,64.43
